createdAt,value
2016-12-07T00:00:00.721Z,0
2016-12-07T00:01:11.753Z,0
2016-12-07T00:02:22.730Z,0
2016-12-07T00:03:33.697Z,0
2016-12-07T00:04:44.883Z,0
2016-12-07T00:05:56.066Z,0
2016-12-07T00:07:07.129Z,0
2016-12-07T00:08:18.098Z,0
2016-12-07T00:09:29.081Z,0
2016-12-07T00:10:40.271Z,0
2016-12-07T00:11:51.277Z,0
2016-12-07T00:13:02.307Z,0
2016-12-07T00:14:13.286Z,0
2016-12-07T00:15:24.267Z,0
2016-12-07T00:16:35.456Z,0
2016-12-07T00:17:46.445Z,0
2016-12-07T00:18:57.479Z,0
2016-12-07T00:20:08.670Z,0
2016-12-07T00:21:19.648Z,0
2016-12-07T00:22:30.826Z,0
2016-12-07T00:23:41.806Z,0
2016-12-07T00:24:52.834Z,0
2016-12-07T00:26:03.814Z,0
2016-12-07T00:27:14.797Z,0
2016-12-07T00:28:25.774Z,0
2016-12-07T00:29:36.750Z,0
2016-12-07T00:30:47.783Z,0
2016-12-07T00:31:58.769Z,0
2016-12-07T00:33:09.959Z,0
2016-12-07T00:34:20.941Z,0
2016-12-07T00:35:32.125Z,0
2016-12-07T00:36:43.152Z,0
2016-12-07T00:37:54.145Z,0
2016-12-07T00:39:05.152Z,0
2016-12-07T00:40:16.135Z,0
2016-12-07T00:41:27.117Z,0
2016-12-07T00:42:38.149Z,0
2016-12-07T00:43:49.127Z,0
2016-12-07T00:45:00.112Z,0
2016-12-07T00:46:11.107Z,0
2016-12-07T00:47:22.095Z,0
2016-12-07T00:48:33.147Z,0
2016-12-07T00:49:44.143Z,0
2016-12-07T00:50:55.156Z,0
2016-12-07T00:52:06.134Z,0
2016-12-07T00:53:17.318Z,0
2016-12-07T00:54:28.351Z,0
2016-12-07T00:55:39.335Z,0
2016-12-07T00:56:50.314Z,0
2016-12-07T00:58:01.497Z,0
2016-12-07T00:59:12.471Z,0
2016-12-07T01:00:23.494Z,0
2016-12-07T01:01:34.484Z,0
2016-12-07T01:02:45.472Z,0
2016-12-07T01:03:56.490Z,0
2016-12-07T01:05:07.491Z,0
2016-12-07T01:06:18.757Z,0
2016-12-07T01:07:29.745Z,0
2016-12-07T01:08:40.737Z,0
2016-12-07T01:09:51.924Z,0
2016-12-07T01:11:02.917Z,0
2016-12-07T01:12:13.955Z,0
2016-12-07T01:13:24.946Z,0
2016-12-07T01:14:36.144Z,0
2016-12-07T01:15:47.139Z,0
2016-12-07T01:16:58.127Z,0
2016-12-07T01:18:09.171Z,0
2016-12-07T01:19:20.167Z,0
2016-12-07T01:20:31.159Z,0
2016-12-07T01:21:42.155Z,0
2016-12-07T01:22:53.152Z,0
2016-12-07T01:24:04.191Z,0
2016-12-07T01:25:15.194Z,0
2016-12-07T01:26:26.386Z,0
2016-12-07T01:27:37.377Z,0
2016-12-07T01:28:48.364Z,0
2016-12-07T01:29:59.611Z,0
2016-12-07T01:31:10.609Z,0
2016-12-07T01:32:21.603Z,0
2016-12-07T01:33:32.589Z,0
2016-12-07T01:34:43.605Z,0
2016-12-07T01:35:54.646Z,0
2016-12-07T01:37:05.638Z,0
2016-12-07T01:38:16.627Z,0
2016-12-07T01:39:27.613Z,0
2016-12-07T01:40:38.806Z,0
2016-12-07T01:41:49.848Z,0
2016-12-07T01:43:00.855Z,0
2016-12-07T01:44:11.853Z,0
2016-12-07T01:45:22.842Z,0
2016-12-07T01:46:33.833Z,0
2016-12-07T01:47:45.071Z,0
2016-12-07T01:48:56.078Z,0
2016-12-07T01:50:07.066Z,0
2016-12-07T01:51:18.059Z,0
2016-12-07T01:52:29.258Z,0
2016-12-07T01:53:40.301Z,0
2016-12-07T01:54:51.319Z,0
2016-12-07T01:56:02.311Z,0
2016-12-07T01:57:13.296Z,0
2016-12-07T01:58:24.289Z,0
2016-12-07T01:59:35.330Z,0
2016-12-07T02:00:46.323Z,0
2016-12-07T02:01:57.544Z,0
2016-12-07T02:03:08.535Z,0
2016-12-07T02:04:19.525Z,0
2016-12-07T02:05:30.770Z,0
2016-12-07T02:06:41.762Z,0
2016-12-07T02:07:52.760Z,0
2016-12-07T02:09:03.738Z,0
2016-12-07T02:10:14.719Z,0
2016-12-07T02:11:25.952Z,0
2016-12-07T02:12:36.931Z,0
2016-12-07T02:13:47.920Z,0
2016-12-07T02:14:58.907Z,0
2016-12-07T02:16:09.890Z,0
2016-12-07T02:17:20.925Z,0
2016-12-07T02:18:31.921Z,0
2016-12-07T02:19:42.909Z,0
2016-12-07T02:20:53.915Z,0
2016-12-07T02:22:04.905Z,0
2016-12-07T02:23:15.942Z,0
2016-12-07T02:24:26.939Z,0
2016-12-07T02:25:37.918Z,0
2016-12-07T02:26:48.901Z,0
2016-12-07T02:27:59.888Z,0
2016-12-07T02:29:10.921Z,0
2016-12-07T02:30:21.907Z,0
2016-12-07T02:31:33.085Z,0
2016-12-07T02:32:44.066Z,0
2016-12-07T02:33:55.245Z,0
2016-12-07T02:35:06.279Z,0
2016-12-07T02:36:17.275Z,0
2016-12-07T02:37:28.261Z,0
2016-12-07T02:38:39.246Z,0
2016-12-07T02:39:50.234Z,0
2016-12-07T02:41:01.258Z,0
2016-12-07T02:42:12.460Z,0
2016-12-07T02:43:23.453Z,0
2016-12-07T02:44:34.636Z,0
2016-12-07T02:45:45.614Z,0
2016-12-07T02:46:56.853Z,0
2016-12-07T02:48:07.835Z,0
2016-12-07T02:49:18.812Z,0
2016-12-07T02:50:29.789Z,0
2016-12-07T02:51:40.782Z,0
2016-12-07T02:52:51.814Z,0
2016-12-07T02:54:02.801Z,0
2016-12-07T02:55:13.785Z,0
2016-12-07T02:56:24.798Z,0
2016-12-07T02:57:35.776Z,0
2016-12-07T02:58:46.807Z,0
2016-12-07T02:59:57.790Z,0
2016-12-07T03:01:08.979Z,0
2016-12-07T03:02:20.155Z,0
2016-12-07T03:03:31.141Z,0
2016-12-07T03:04:42.178Z,0
2016-12-07T03:05:53.156Z,0
2016-12-07T03:07:04.132Z,0
2016-12-07T03:08:15.110Z,0
2016-12-07T03:09:26.097Z,0
2016-12-07T03:10:37.138Z,0
2016-12-07T03:11:48.122Z,0
2016-12-07T03:12:59.106Z,0
2016-12-07T03:14:10.090Z,0
2016-12-07T03:15:21.081Z,0
2016-12-07T03:16:32.113Z,0
2016-12-07T03:17:43.100Z,0
2016-12-07T03:18:54.092Z,0
2016-12-07T03:20:05.272Z,0
2016-12-07T03:21:16.254Z,0
2016-12-07T03:22:27.288Z,0
2016-12-07T03:23:38.277Z,0
2016-12-07T03:24:49.257Z,0
2016-12-07T03:26:00.436Z,0
2016-12-07T03:27:11.828Z,0
2016-12-07T03:28:23.062Z,0
2016-12-07T03:29:34.050Z,0
2016-12-07T03:30:45.035Z,0
2016-12-07T03:31:56.015Z,0
2016-12-07T03:33:07.003Z,0
2016-12-07T03:34:18.023Z,0
2016-12-07T03:35:29.006Z,0
2016-12-07T03:36:40.181Z,0
2016-12-07T03:37:51.171Z,0
2016-12-07T03:39:02.351Z,0
2016-12-07T03:40:13.384Z,0
2016-12-07T03:41:24.364Z,0
2016-12-07T03:42:35.344Z,0
2016-12-07T03:43:46.529Z,0
2016-12-07T03:44:57.516Z,0
2016-12-07T03:46:08.580Z,0
2016-12-07T03:47:19.762Z,0
2016-12-07T03:48:30.751Z,0
2016-12-07T03:49:41.741Z,0
2016-12-07T03:50:52.730Z,0
2016-12-07T03:52:03.774Z,0
2016-12-07T03:53:14.760Z,0
2016-12-07T03:54:25.743Z,0
2016-12-07T03:55:36.934Z,0
2016-12-07T03:56:47.908Z,0
2016-12-07T03:57:58.939Z,0
2016-12-07T03:59:09.923Z,0
2016-12-07T04:00:20.906Z,0
2016-12-07T04:01:31.925Z,0
2016-12-07T04:02:42.913Z,0
2016-12-07T04:03:53.941Z,0
2016-12-07T04:05:04.931Z,0
2016-12-07T04:06:15.913Z,0
2016-12-07T04:07:26.912Z,0
2016-12-07T04:08:37.893Z,0
2016-12-07T04:09:48.932Z,0
2016-12-07T04:10:59.920Z,0
2016-12-07T04:12:10.902Z,0
2016-12-07T04:13:22.089Z,0
2016-12-07T04:14:33.066Z,0
2016-12-07T04:15:44.093Z,0
2016-12-07T04:16:55.282Z,0
2016-12-07T04:18:06.275Z,0
2016-12-07T04:19:17.259Z,0
2016-12-07T04:20:28.243Z,0
2016-12-07T04:21:39.277Z,0
2016-12-07T04:22:50.458Z,0
2016-12-07T04:24:01.454Z,0
2016-12-07T04:25:12.443Z,0
2016-12-07T04:26:23.430Z,0
2016-12-07T04:27:34.470Z,0
2016-12-07T04:28:45.445Z,0
2016-12-07T04:29:56.420Z,0
2016-12-07T04:31:07.409Z,0
2016-12-07T04:32:18.391Z,0
2016-12-07T04:33:29.629Z,0
2016-12-07T04:34:40.609Z,0
2016-12-07T04:35:51.622Z,0
2016-12-07T04:37:02.602Z,0
2016-12-07T04:38:13.595Z,0
2016-12-07T04:39:24.839Z,0
2016-12-07T04:40:35.817Z,0
2016-12-07T04:41:46.811Z,0
2016-12-07T04:42:57.789Z,0
2016-12-07T04:44:08.767Z,0
2016-12-07T04:45:19.796Z,0
2016-12-07T04:46:30.782Z,0
2016-12-07T04:47:41.766Z,0
2016-12-07T04:48:52.761Z,0
2016-12-07T04:50:03.748Z,0
2016-12-07T04:51:14.777Z,0
2016-12-07T04:52:25.762Z,0
2016-12-07T04:53:37.147Z,0
2016-12-07T04:54:48.121Z,0
2016-12-07T04:55:59.102Z,0
2016-12-07T04:57:10.335Z,0
2016-12-07T04:58:21.314Z,0
2016-12-07T04:59:32.290Z,0
2016-12-07T05:00:43.276Z,0
2016-12-07T05:01:54.266Z,0
2016-12-07T05:03:05.506Z,0
2016-12-07T05:04:16.485Z,0
2016-12-07T05:05:27.465Z,0
2016-12-07T05:06:38.444Z,0
2016-12-07T05:07:49.421Z,0
2016-12-07T05:09:00.678Z,0
2016-12-07T05:10:11.660Z,0
2016-12-07T05:11:22.644Z,0
2016-12-07T05:12:33.630Z,0
2016-12-07T05:13:44.617Z,0
2016-12-07T05:14:55.645Z,0
2016-12-07T05:16:06.623Z,0
2016-12-07T05:17:17.607Z,0
2016-12-07T05:18:28.599Z,0
2016-12-07T05:19:39.810Z,0
2016-12-07T05:20:50.848Z,0
2016-12-07T05:22:01.827Z,0
2016-12-07T05:23:12.816Z,0
2016-12-07T05:24:23.800Z,0
2016-12-07T05:25:34.781Z,0
2016-12-07T05:26:45.820Z,0
2016-12-07T05:27:56.807Z,0
2016-12-07T05:29:07.990Z,0
2016-12-07T05:30:18.970Z,0
2016-12-07T05:31:29.955Z,0
2016-12-07T05:32:40.988Z,0
2016-12-07T05:33:51.979Z,0
2016-12-07T05:35:02.960Z,0
2016-12-07T05:36:13.936Z,0
2016-12-07T05:37:24.917Z,0
2016-12-07T05:38:35.948Z,0
2016-12-07T05:39:46.935Z,0
2016-12-07T05:40:57.917Z,0
2016-12-07T05:42:08.893Z,0
2016-12-07T05:43:19.878Z,0
2016-12-07T05:44:30.914Z,0
2016-12-07T05:45:41.893Z,0
2016-12-07T05:46:52.874Z,0
2016-12-07T05:48:04.061Z,0
2016-12-07T05:49:15.056Z,0
2016-12-07T05:50:26.086Z,0
2016-12-07T05:51:37.274Z,0
2016-12-07T05:52:48.467Z,0
2016-12-07T05:53:59.453Z,0
2016-12-07T05:55:10.437Z,0
2016-12-07T05:56:21.476Z,0
2016-12-07T05:57:32.660Z,0
2016-12-07T05:58:43.640Z,0
2016-12-07T05:59:54.619Z,0
2016-12-07T06:01:05.610Z,0
2016-12-07T06:02:16.638Z,0
2016-12-07T06:03:27.621Z,0
2016-12-07T06:04:38.800Z,0
2016-12-07T06:05:49.783Z,0
2016-12-07T06:07:00.793Z,0
2016-12-07T06:08:11.823Z,0
2016-12-07T06:09:23.013Z,0
2016-12-07T06:10:33.996Z,0
2016-12-07T06:11:45.003Z,0
2016-12-07T06:12:55.987Z,0
2016-12-07T06:14:07.219Z,0
2016-12-07T06:15:18.201Z,0
2016-12-07T06:16:29.384Z,0
2016-12-07T06:17:40.578Z,0
2016-12-07T06:18:51.558Z,0
2016-12-07T06:20:02.588Z,0
2016-12-07T06:21:13.559Z,0
2016-12-07T06:22:24.537Z,0
2016-12-07T06:23:35.523Z,0
2016-12-07T06:24:46.505Z,0
2016-12-07T06:25:57.931Z,0
2016-12-07T06:27:08.912Z,0
2016-12-07T06:28:19.898Z,0
2016-12-07T06:29:30.888Z,0
2016-12-07T06:30:41.871Z,0
2016-12-07T06:31:53.100Z,0
2016-12-07T06:33:04.079Z,0
2016-12-07T06:34:15.059Z,0
2016-12-07T06:35:26.071Z,0
2016-12-07T06:36:37.045Z,0
2016-12-07T06:37:48.082Z,0
2016-12-07T06:38:59.063Z,0
2016-12-07T06:40:10.266Z,0
2016-12-07T06:41:21.250Z,0
2016-12-07T06:42:32.232Z,0
2016-12-07T06:43:43.271Z,0
2016-12-07T06:44:54.257Z,0
2016-12-07T06:46:05.246Z,0
2016-12-07T06:47:16.225Z,0
2016-12-07T06:48:27.212Z,0
2016-12-07T06:49:38.251Z,0
2016-12-07T06:50:49.433Z,0
2016-12-07T06:52:00.413Z,0
2016-12-07T06:53:11.401Z,0
2016-12-07T06:54:22.386Z,0
2016-12-07T06:55:33.619Z,0
2016-12-07T06:56:44.604Z,0
2016-12-07T06:57:55.585Z,0
2016-12-07T06:59:06.569Z,0
2016-12-07T07:00:17.554Z,0
2016-12-07T07:01:28.535Z,0
2016-12-07T07:02:39.517Z,0
2016-12-07T07:03:50.503Z,0
2016-12-07T07:05:01.688Z,0
2016-12-07T07:06:12.678Z,0
2016-12-07T07:07:23.658Z,0
2016-12-07T07:08:34.665Z,0
2016-12-07T07:09:45.689Z,5
2016-12-07T07:10:56.672Z,5
2016-12-07T07:12:07.879Z,5
2016-12-07T07:13:19.054Z,5
2016-12-07T07:14:30.045Z,5
2016-12-07T07:15:41.029Z,5
2016-12-07T07:16:52.019Z,5
2016-12-07T07:18:03.000Z,5
2016-12-07T07:19:13.994Z,5
2016-12-07T07:20:24.985Z,5
2016-12-07T07:21:35.970Z,5
2016-12-07T07:22:46.965Z,10
2016-12-07T07:23:57.950Z,10
2016-12-07T07:25:08.964Z,10
2016-12-07T07:26:19.948Z,10
2016-12-07T07:27:30.926Z,10
2016-12-07T07:28:41.900Z,10
2016-12-07T07:29:52.886Z,15
2016-12-07T07:31:03.879Z,15
2016-12-07T07:32:14.852Z,15
2016-12-07T07:33:25.837Z,15
2016-12-07T07:34:36.825Z,15
2016-12-07T07:35:47.804Z,20
2016-12-07T07:36:58.792Z,20
2016-12-07T07:38:09.777Z,20
2016-12-07T07:39:20.771Z,20
2016-12-07T07:40:31.754Z,20
2016-12-07T07:41:42.739Z,20
2016-12-07T07:42:53.727Z,20
2016-12-07T07:44:04.717Z,20
2016-12-07T07:45:15.751Z,20
2016-12-07T07:46:26.741Z,25
2016-12-07T07:47:37.932Z,25
2016-12-07T07:48:48.914Z,25
2016-12-07T07:49:59.897Z,25
2016-12-07T07:51:11.128Z,25
2016-12-07T07:52:22.108Z,25
2016-12-07T07:53:33.085Z,25
2016-12-07T07:54:44.073Z,25
2016-12-07T07:55:55.076Z,25
2016-12-07T07:57:06.112Z,25
2016-12-07T07:58:17.124Z,30
2016-12-07T07:59:28.117Z,30
2016-12-07T08:00:39.098Z,35
2016-12-07T08:01:50.078Z,35
2016-12-07T08:03:01.110Z,35
2016-12-07T08:04:12.095Z,40
2016-12-07T08:05:23.078Z,40
2016-12-07T08:06:34.058Z,35
2016-12-07T08:07:45.078Z,40
2016-12-07T08:08:56.120Z,40
2016-12-07T08:10:07.100Z,40
2016-12-07T08:11:18.081Z,45
2016-12-07T08:12:29.071Z,50
2016-12-07T08:13:40.276Z,55
2016-12-07T08:14:51.522Z,60
2016-12-07T08:16:02.703Z,65
2016-12-07T08:17:13.689Z,65
2016-12-07T08:18:24.669Z,65
2016-12-07T08:19:35.648Z,65
2016-12-07T08:20:46.879Z,60
2016-12-07T08:21:57.866Z,60
2016-12-07T08:23:08.859Z,55
2016-12-07T08:24:19.845Z,55
2016-12-07T08:25:30.835Z,55
2016-12-07T08:26:41.865Z,50
2016-12-07T08:27:52.862Z,50
2016-12-07T08:29:03.838Z,55
2016-12-07T08:30:15.028Z,55
2016-12-07T08:31:26.018Z,55
2016-12-07T08:32:37.047Z,60
2016-12-07T08:33:48.030Z,60
2016-12-07T08:34:59.011Z,65
2016-12-07T08:36:10.022Z,65
2016-12-07T08:37:21.000Z,65
2016-12-07T08:38:32.034Z,65
2016-12-07T08:39:43.228Z,65
2016-12-07T08:40:54.209Z,65
2016-12-07T08:42:05.195Z,65
2016-12-07T08:43:16.180Z,65
2016-12-07T08:44:27.218Z,65
2016-12-07T08:45:38.407Z,70
2016-12-07T08:46:49.590Z,70
2016-12-07T08:48:00.572Z,75
2016-12-07T08:49:11.553Z,80
2016-12-07T08:50:22.577Z,80
2016-12-07T08:51:33.554Z,80
2016-12-07T08:52:44.534Z,80
2016-12-07T08:53:55.511Z,80
2016-12-07T08:55:06.492Z,80
2016-12-07T08:56:17.518Z,75
2016-12-07T08:57:28.497Z,75
2016-12-07T08:58:39.703Z,80
2016-12-07T08:59:50.682Z,80
2016-12-07T09:01:01.666Z,80
2016-12-07T09:02:12.901Z,80
2016-12-07T09:03:24.078Z,80
2016-12-07T09:04:35.065Z,75
2016-12-07T09:05:46.248Z,75
2016-12-07T09:06:57.234Z,70
2016-12-07T09:08:08.271Z,65
2016-12-07T09:09:19.284Z,65
2016-12-07T09:10:30.268Z,60
2016-12-07T09:11:41.283Z,60
2016-12-07T09:12:52.257Z,55
2016-12-07T09:14:03.290Z,50
2016-12-07T09:15:14.271Z,50
2016-12-07T09:16:25.258Z,50
2016-12-07T09:17:36.445Z,45
2016-12-07T09:18:47.630Z,50
2016-12-07T09:19:58.660Z,50
2016-12-07T09:21:09.645Z,50
2016-12-07T09:22:20.632Z,55
2016-12-07T09:23:31.624Z,60
2016-12-07T09:24:42.608Z,60
2016-12-07T09:25:53.646Z,65
2016-12-07T09:27:04.644Z,65
2016-12-07T09:28:15.626Z,65
2016-12-07T09:29:26.613Z,65
2016-12-07T09:30:37.598Z,65
2016-12-07T09:31:48.636Z,65
2016-12-07T09:32:59.820Z,65
2016-12-07T09:34:11.002Z,65
2016-12-07T09:35:21.991Z,65
2016-12-07T09:36:32.969Z,70
2016-12-07T09:37:44.006Z,80
2016-12-07T09:38:55.000Z,85
2016-12-07T09:40:05.979Z,80
2016-12-07T09:41:17.161Z,90
2016-12-07T09:42:28.364Z,95
2016-12-07T09:43:39.605Z,100
2016-12-07T09:44:50.587Z,105
2016-12-07T09:46:01.578Z,110
2016-12-07T09:47:12.771Z,115
2016-12-07T09:48:23.748Z,120
2016-12-07T09:49:34.776Z,120
2016-12-07T09:50:45.752Z,115
2016-12-07T09:51:56.737Z,115
2016-12-07T09:53:07.716Z,110
2016-12-07T09:54:18.720Z,105
2016-12-07T09:55:29.747Z,95
2016-12-07T09:56:40.932Z,90
2016-12-07T09:57:51.918Z,90
2016-12-07T09:59:02.899Z,90
2016-12-07T10:00:14.082Z,90
2016-12-07T10:01:25.314Z,90
2016-12-07T10:02:36.299Z,90
2016-12-07T10:03:47.279Z,85
2016-12-07T10:04:58.266Z,85
2016-12-07T10:06:09.454Z,90
2016-12-07T10:07:20.478Z,90
2016-12-07T10:08:31.465Z,90
2016-12-07T10:09:42.456Z,90
2016-12-07T10:10:53.435Z,90
2016-12-07T10:12:04.617Z,90
2016-12-07T10:13:15.666Z,90
2016-12-07T10:14:26.647Z,90
2016-12-07T10:15:37.638Z,90
2016-12-07T10:16:48.831Z,90
2016-12-07T10:17:59.839Z,90
2016-12-07T10:19:10.889Z,90
2016-12-07T10:20:21.865Z,95
2016-12-07T10:21:32.851Z,100
2016-12-07T10:22:44.036Z,100
2016-12-07T10:23:55.020Z,105
2016-12-07T10:25:06.274Z,110
2016-12-07T10:26:17.262Z,120
2016-12-07T10:27:28.273Z,120
2016-12-07T10:28:39.259Z,125
2016-12-07T10:29:50.441Z,125
2016-12-07T10:31:01.675Z,130
2016-12-07T10:32:12.869Z,130
2016-12-07T10:33:23.858Z,130
2016-12-07T10:34:34.847Z,125
2016-12-07T10:35:46.024Z,120
2016-12-07T10:36:57.062Z,115
2016-12-07T10:38:08.248Z,110
2016-12-07T10:39:19.232Z,105
2016-12-07T10:40:30.220Z,105
2016-12-07T10:41:41.411Z,100
2016-12-07T10:42:52.464Z,100
2016-12-07T10:44:03.449Z,100
2016-12-07T10:45:14.439Z,100
2016-12-07T10:46:25.424Z,105
2016-12-07T10:47:36.404Z,110
2016-12-07T10:48:47.457Z,115
2016-12-07T10:49:58.447Z,120
2016-12-07T10:51:09.429Z,125
2016-12-07T10:52:20.614Z,135
2016-12-07T10:53:31.799Z,150
2016-12-07T10:54:42.835Z,155
2016-12-07T10:55:53.823Z,160
2016-12-07T10:57:05.248Z,165
2016-12-07T10:58:16.239Z,170
2016-12-07T10:59:27.228Z,175
2016-12-07T11:00:38.263Z,175
2016-12-07T11:01:49.249Z,170
2016-12-07T11:03:00.227Z,170
2016-12-07T11:04:11.228Z,170
2016-12-07T11:05:22.221Z,170
2016-12-07T11:06:33.253Z,170
2016-12-07T11:07:44.233Z,170
2016-12-07T11:08:55.224Z,170
2016-12-07T11:10:06.413Z,170
2016-12-07T11:11:17.398Z,170
2016-12-07T11:12:28.644Z,170
2016-12-07T11:13:39.634Z,170
2016-12-07T11:14:50.631Z,165
2016-12-07T11:16:01.617Z,170
2016-12-07T11:17:12.607Z,170
2016-12-07T11:18:23.646Z,170
2016-12-07T11:19:35.032Z,175
2016-12-07T11:20:46.010Z,185
2016-12-07T11:21:57.003Z,185
2016-12-07T11:23:07.988Z,190
2016-12-07T11:24:19.023Z,195
2016-12-07T11:25:29.997Z,195
2016-12-07T11:26:41.013Z,195
2016-12-07T11:27:52.199Z,190
2016-12-07T11:29:03.195Z,190
2016-12-07T11:30:14.235Z,195
2016-12-07T11:31:25.434Z,200
2016-12-07T11:32:36.424Z,200
2016-12-07T11:33:47.412Z,205
2016-12-07T11:34:58.396Z,200
2016-12-07T11:36:09.430Z,195
2016-12-07T11:37:20.417Z,190
2016-12-07T11:38:31.607Z,185
2016-12-07T11:39:42.795Z,180
2016-12-07T11:40:53.783Z,180
2016-12-07T11:42:04.826Z,180
2016-12-07T11:43:15.807Z,180
2016-12-07T11:44:27.190Z,190
2016-12-07T11:45:38.199Z,205
2016-12-07T11:46:49.176Z,225
2016-12-07T11:48:00.223Z,245
2016-12-07T11:49:11.201Z,270
2016-12-07T11:50:22.188Z,285
2016-12-07T11:51:33.178Z,290
2016-12-07T11:52:44.174Z,295
2016-12-07T11:53:55.212Z,295
2016-12-07T11:55:06.392Z,280
2016-12-07T11:56:17.387Z,275
2016-12-07T11:57:28.572Z,255
2016-12-07T11:58:39.572Z,235
2016-12-07T11:59:50.806Z,220
2016-12-07T12:01:01.796Z,210
2016-12-07T12:02:12.807Z,200
2016-12-07T12:03:23.796Z,190
2016-12-07T12:04:34.788Z,180
2016-12-07T12:05:45.818Z,170
2016-12-07T12:06:56.809Z,170
2016-12-07T12:08:07.800Z,160
2016-12-07T12:09:18.983Z,145
2016-12-07T12:10:29.974Z,135
2016-12-07T12:11:41.014Z,130
2016-12-07T12:12:52.002Z,125
2016-12-07T12:14:02.994Z,120
2016-12-07T12:15:14.180Z,120
2016-12-07T12:16:25.177Z,120
2016-12-07T12:17:36.210Z,120
2016-12-07T12:18:47.192Z,120
2016-12-07T12:19:58.179Z,125
2016-12-07T12:21:09.158Z,130
2016-12-07T12:22:20.142Z,140
2016-12-07T12:23:31.182Z,150
2016-12-07T12:24:42.170Z,160
2016-12-07T12:25:53.361Z,165
2016-12-07T12:27:04.360Z,170
2016-12-07T12:28:15.345Z,175
2016-12-07T12:29:26.380Z,175
2016-12-07T12:30:37.566Z,175
2016-12-07T12:31:48.561Z,175
2016-12-07T12:32:59.549Z,175
2016-12-07T12:34:10.527Z,170
2016-12-07T12:35:21.764Z,165
2016-12-07T12:36:32.760Z,165
2016-12-07T12:37:43.742Z,160
2016-12-07T12:38:55.325Z,155
2016-12-07T12:40:06.514Z,155
2016-12-07T12:41:17.555Z,155
2016-12-07T12:42:28.740Z,155
2016-12-07T12:43:39.724Z,155
2016-12-07T12:44:50.706Z,155
2016-12-07T12:46:01.899Z,150
2016-12-07T12:47:12.937Z,150
2016-12-07T12:48:23.929Z,150
2016-12-07T12:49:34.910Z,150
2016-12-07T12:50:46.092Z,150
2016-12-07T12:51:57.090Z,145
2016-12-07T12:53:08.128Z,145
2016-12-07T12:54:19.125Z,140
2016-12-07T12:55:30.117Z,135
2016-12-07T12:56:41.305Z,130
2016-12-07T12:57:52.294Z,130
2016-12-07T12:59:03.331Z,125
2016-12-07T13:00:14.332Z,120
2016-12-07T13:01:25.328Z,115
2016-12-07T13:02:36.318Z,110
2016-12-07T13:03:47.301Z,105
2016-12-07T13:04:58.333Z,100
2016-12-07T13:06:09.322Z,100
2016-12-07T13:07:20.511Z,95
2016-12-07T13:08:31.501Z,95
2016-12-07T13:09:42.692Z,95
2016-12-07T13:10:53.728Z,100
2016-12-07T13:12:05.115Z,100
2016-12-07T13:13:16.321Z,100
2016-12-07T13:14:27.336Z,100
2016-12-07T13:15:38.326Z,100
2016-12-07T13:16:49.360Z,100
2016-12-07T13:18:00.346Z,100
2016-12-07T13:19:11.334Z,100
2016-12-07T13:20:22.321Z,100
2016-12-07T13:21:33.501Z,100
2016-12-07T13:22:44.538Z,95
2016-12-07T13:23:55.523Z,95
2016-12-07T13:25:06.709Z,95
2016-12-07T13:26:17.692Z,95
2016-12-07T13:27:28.675Z,95
2016-12-07T13:28:39.709Z,95
2016-12-07T13:29:50.703Z,90
2016-12-07T13:31:01.689Z,90
2016-12-07T13:32:12.682Z,85
2016-12-07T13:33:23.860Z,85
2016-12-07T13:34:34.899Z,80
2016-12-07T13:35:45.885Z,75
2016-12-07T13:36:56.880Z,65
2016-12-07T13:38:08.065Z,60
2016-12-07T13:39:19.049Z,55
2016-12-07T13:40:30.086Z,50
2016-12-07T13:41:41.066Z,45
2016-12-07T13:42:52.049Z,45
2016-12-07T13:44:03.038Z,45
2016-12-07T13:45:14.019Z,45
2016-12-07T13:46:25.051Z,40
2016-12-07T13:47:36.035Z,40
2016-12-07T13:48:47.021Z,40
2016-12-07T13:49:58.015Z,40
2016-12-07T13:51:09.421Z,40
2016-12-07T13:52:20.872Z,40
2016-12-07T13:53:31.879Z,40
2016-12-07T13:54:42.867Z,40
2016-12-07T13:55:53.850Z,45
2016-12-07T13:57:04.845Z,45
2016-12-07T13:58:15.880Z,45
2016-12-07T13:59:26.867Z,45
2016-12-07T14:00:38.047Z,45
2016-12-07T14:01:49.236Z,45
2016-12-07T14:03:00.220Z,45
2016-12-07T14:04:11.291Z,45
2016-12-07T14:05:22.273Z,45
2016-12-07T14:06:33.260Z,50
2016-12-07T14:07:44.443Z,50
2016-12-07T14:08:55.437Z,50
2016-12-07T14:10:06.471Z,55
2016-12-07T14:11:17.650Z,55
2016-12-07T14:12:28.629Z,55
2016-12-07T14:13:39.614Z,60
2016-12-07T14:14:50.803Z,60
2016-12-07T14:16:01.843Z,60
2016-12-07T14:17:12.839Z,60
2016-12-07T14:18:23.827Z,60
2016-12-07T14:19:34.818Z,60
2016-12-07T14:20:45.803Z,60
2016-12-07T14:21:56.832Z,60
2016-12-07T14:23:08.020Z,60
2016-12-07T14:24:19.014Z,60
2016-12-07T14:25:30.009Z,55
2016-12-07T14:26:41.000Z,55
2016-12-07T14:27:52.035Z,55
2016-12-07T14:29:03.014Z,60
2016-12-07T14:30:14.003Z,55
2016-12-07T14:31:25.187Z,55
2016-12-07T14:32:36.169Z,50
2016-12-07T14:33:47.237Z,50
2016-12-07T14:34:58.230Z,50
2016-12-07T14:36:09.222Z,45
2016-12-07T14:37:20.215Z,45
2016-12-07T14:38:31.196Z,45
2016-12-07T14:39:42.246Z,45
2016-12-07T14:40:53.429Z,45
2016-12-07T14:42:04.622Z,40
2016-12-07T14:43:15.614Z,40
2016-12-07T14:44:27.008Z,40
2016-12-07T14:45:38.049Z,35
2016-12-07T14:46:49.038Z,35
2016-12-07T14:48:00.023Z,30
2016-12-07T14:49:11.018Z,30
2016-12-07T14:50:22.014Z,30
2016-12-07T14:51:33.079Z,25
2016-12-07T14:52:44.259Z,25
2016-12-07T14:53:55.248Z,25
2016-12-07T14:55:06.244Z,20
2016-12-07T14:56:17.241Z,20
2016-12-07T14:57:28.272Z,20
2016-12-07T14:58:39.460Z,20
2016-12-07T14:59:50.440Z,20
2016-12-07T15:01:01.427Z,15
2016-12-07T15:02:12.629Z,15
2016-12-07T15:03:23.659Z,15
2016-12-07T15:04:34.643Z,15
2016-12-07T15:05:45.633Z,10
2016-12-07T15:06:56.618Z,10
2016-12-07T15:08:07.606Z,10
2016-12-07T15:09:18.637Z,10
2016-12-07T15:10:29.626Z,5
2016-12-07T15:11:40.607Z,5
2016-12-07T15:12:51.586Z,5
2016-12-07T15:14:02.579Z,5
2016-12-07T15:15:13.765Z,5
2016-12-07T15:16:24.950Z,5
2016-12-07T15:17:36.143Z,5
2016-12-07T15:18:47.128Z,0
2016-12-07T15:19:58.119Z,0
2016-12-07T15:21:09.097Z,0
2016-12-07T15:22:20.087Z,0
2016-12-07T15:23:31.274Z,0
2016-12-07T15:24:42.255Z,0
2016-12-07T15:25:53.231Z,0
2016-12-07T15:27:04.416Z,0
2016-12-07T15:28:15.413Z,0
2016-12-07T15:29:26.608Z,0
2016-12-07T15:30:37.783Z,0
2016-12-07T15:31:48.768Z,0
2016-12-07T15:32:59.745Z,0
2016-12-07T15:34:10.739Z,0
2016-12-07T15:35:21.731Z,0
2016-12-07T15:36:32.717Z,0
2016-12-07T15:37:43.706Z,0
2016-12-07T15:38:54.691Z,0
2016-12-07T15:40:05.678Z,0
2016-12-07T15:41:16.679Z,0
2016-12-07T15:42:27.664Z,0
2016-12-07T15:43:38.686Z,0
2016-12-07T15:44:49.675Z,0
2016-12-07T15:46:00.655Z,0
2016-12-07T15:47:11.638Z,0
2016-12-07T15:48:22.650Z,0
2016-12-07T15:49:33.629Z,0
2016-12-07T15:50:44.623Z,0
2016-12-07T15:51:55.610Z,0
2016-12-07T15:53:06.631Z,0
2016-12-07T15:54:17.622Z,0
2016-12-07T15:55:28.807Z,0
2016-12-07T15:56:39.794Z,0
2016-12-07T15:57:50.775Z,0
2016-12-07T15:59:01.760Z,0
2016-12-07T16:00:12.950Z,0
2016-12-07T16:01:24.181Z,0
2016-12-07T16:02:35.379Z,0
2016-12-07T16:03:46.355Z,0
2016-12-07T16:04:57.338Z,0
2016-12-07T16:06:08.325Z,0
2016-12-07T16:07:19.359Z,0
2016-12-07T16:08:30.349Z,0
2016-12-07T16:09:41.335Z,0
2016-12-07T16:10:52.327Z,0
2016-12-07T16:12:03.322Z,0
2016-12-07T16:13:14.348Z,0
2016-12-07T16:14:25.539Z,0
2016-12-07T16:15:36.731Z,0
2016-12-07T16:16:47.722Z,0
2016-12-07T16:17:58.716Z,0
2016-12-07T16:19:09.950Z,0
2016-12-07T16:20:20.940Z,0
2016-12-07T16:21:31.945Z,0
2016-12-07T16:22:42.940Z,0
2016-12-07T16:23:53.929Z,0
2016-12-07T16:25:04.979Z,0
2016-12-07T16:26:15.970Z,0
2016-12-07T16:27:26.953Z,0
2016-12-07T16:28:37.947Z,0
2016-12-07T16:29:48.934Z,0
2016-12-07T16:30:59.969Z,0
2016-12-07T16:32:10.957Z,0
2016-12-07T16:33:21.953Z,0
2016-12-07T16:34:32.967Z,0
2016-12-07T16:35:43.966Z,0
2016-12-07T16:36:55.002Z,0
2016-12-07T16:38:05.993Z,0
2016-12-07T16:39:16.977Z,0
2016-12-07T16:40:27.960Z,0
2016-12-07T16:41:39.152Z,0
2016-12-07T16:42:50.195Z,0
2016-12-07T16:44:01.191Z,0
2016-12-07T16:45:12.176Z,0
2016-12-07T16:46:23.165Z,0
2016-12-07T16:47:34.155Z,0
2016-12-07T16:48:45.599Z,0
2016-12-07T16:49:56.585Z,0
2016-12-07T16:51:07.578Z,0
2016-12-07T16:52:18.566Z,0
2016-12-07T16:53:29.775Z,0
2016-12-07T16:54:40.813Z,0
2016-12-07T16:55:51.799Z,0
2016-12-07T16:57:02.813Z,0
2016-12-07T16:58:13.798Z,0
2016-12-07T16:59:24.783Z,0
2016-12-07T17:00:36.019Z,0
2016-12-07T17:01:47.008Z,0
2016-12-07T17:02:58.022Z,0
2016-12-07T17:04:09.243Z,0
2016-12-07T17:05:20.422Z,0